Time;durP1;ratioP1;P1;durP2;ratioP2;P2;SDS_P1;SDS_P2;PMS_P1;PMS_P2;Temp;Humidity;BMP_temperature;BMP_pressure;BME280_temperature;BME280_humidity;BME280_pressure;Samples;Min_cycle;Max_cycle;Signal;HPM_P1;HPM_P2
2021/03/05 00:02:15;;;;;;;20.25;9.98;;;;;;;1.52;96.12;101164.66;5043800;23;20073;-80
2021/03/05 00:04:42;;;;;;;23.35;10.73;;;;;;;1.53;95.86;101171.56;5034670;28;20057;-81
2021/03/05 00:07:09;;;;;;;22.17;9.48;;;;;;;1.50;96.12;101169.88;5032499;28;20061;-83
2021/03/05 00:09:35;;;;;;;22.15;9.93;;;;;;;1.42;97.28;101182.09;5034669;28;20049;-82
2021/03/05 00:12:03;;;;;;;19.52;9.23;;;;;;;1.30;96.23;101181.38;5017872;28;20049;-84
2021/03/05 00:14:29;;;;;;;23.88;9.75;;;;;;;1.44;95.74;101184.66;5000546;28;20049;-81
2021/03/05 00:16:56;;;;;;;20.17;10.32;;;;;;;1.42;95.57;101182.09;5007591;28;20161;-81
2021/03/05 00:19:23;;;;;;;25.73;10.20;;;;;;;1.49;95.18;101198.47;5027664;28;20765;-80
2021/03/05 00:21:52;;;;;;;23.83;10.25;;;;;;;1.30;95.29;101192.59;5004475;28;20213;-82
2021/03/05 00:24:19;;;;;;;22.52;10.57;;;;;;;1.23;96.80;101198.75;5001499;28;20038;-80
2021/03/05 00:26:46;;;;;;;22.58;10.70;;;;;;;1.22;97.47;101197.06;5004508;28;20054;-80
2021/03/05 00:29:12;;;;;;;27.77;11.30;;;;;;;1.19;97.26;101200.53;5021793;28;20110;-79
2021/03/05 00:31:39;;;;;;;28.48;10.95;;;;;;;1.26;97.38;101201.28;5017394;28;20046;-82
2021/03/05 00:34:07;;;;;;;24.45;11.95;;;;;;;1.37;96.11;101211.56;5010209;28;20074;-80
2021/03/05 00:36:34;;;;;;;25.83;10.98;;;;;;;1.35;95.90;101210.72;5017642;28;20069;-82
2021/03/05 00:39:01;;;;;;;22.10;10.85;;;;;;;1.35;95.87;101218.50;4995294;28;20084;-81
2021/03/05 00:41:29;;;;;;;34.70;13.68;;;;;;;1.35;96.29;101214.19;4997525;28;20149;-80
2021/03/05 00:43:55;;;;;;;26.80;11.85;;;;;;;1.31;96.19;101209.91;5010117;28;20089;-81
2021/03/05 00:46:22;;;;;;;27.77;12.25;;;;;;;1.24;96.78;101223.81;5016586;28;20072;-79
2021/03/05 00:48:51;;;;;;;26.70;11.82;;;;;;;1.33;95.88;101215.94;5008466;28;20176;-79
2021/03/05 00:51:18;;;;;;;28.38;12.02;;;;;;;1.31;95.79;101222.88;5024743;28;20114;-79
2021/03/05 00:53:45;;;;;;;33.13;11.75;;;;;;;1.35;94.98;101223.69;5020598;28;20049;-79
2021/03/05 00:56:12;;;;;;;31.20;12.88;;;;;;;1.34;94.76;101228.00;5030014;28;20077;-79
2021/03/05 00:58:39;;;;;;;30.63;12.52;;;;;;;1.25;95.33;101231.56;5014303;28;20060;-80
2021/03/05 01:01:06;;;;;;;25.40;11.38;;;;;;;1.37;95.02;101233.19;5034059;28;20057;-81
2021/03/05 01:03:34;;;;;;;29.63;11.52;;;;;;;1.35;94.05;101228.88;5022502;28;20054;-80
2021/03/05 01:06:14;;;;;;;42.08;12.93;;;;;;;1.19;95.48;101226.47;5022887;28;20084;-80
2021/03/05 01:08:40;;;;;;;27.83;12.43;;;;;;;1.11;96.47;101227.41;5025623;28;20098;-80
2021/03/05 01:11:07;;;;;;;33.33;11.52;;;;;;;1.24;95.95;101229.00;5028910;28;20037;-80
2021/03/05 01:13:34;;;;;;;33.00;11.13;;;;;;;1.24;94.19;101227.25;5022656;28;20042;-78
2021/03/05 01:16:01;;;;;;;30.30;11.95;;;;;;;1.23;93.54;101235.91;5014921;28;20042;-80
2021/03/05 01:18:27;;;;;;;28.02;12.32;;;;;;;1.20;92.87;101230.75;5023536;28;20037;-79
2021/03/05 01:20:55;;;;;;;29.17;11.80;;;;;;;1.11;93.81;101236.03;5035546;28;20053;-80
2021/03/05 01:23:23;;;;;;;30.98;12.40;;;;;;;1.12;93.78;101240.34;5027898;28;20054;-80
2021/03/05 01:25:50;;;;;;;32.50;13.82;;;;;;;0.97;93.42;101232.72;5008259;28;20060;-79
2021/03/05 01:28:17;;;;;;;40.95;13.60;;;;;;;0.89;93.95;101243.16;5009600;28;20057;-82
2021/03/05 01:30:44;;;;;;;38.80;14.13;;;;;;;0.79;93.85;101240.69;5014940;28;20052;-81
2021/03/05 01:33:11;;;;;;;33.95;11.80;;;;;;;0.80;94.31;101245.84;4994629;28;20113;-80
2021/03/05 01:35:38;;;;;;;44.72;12.98;;;;;;;0.64;94.55;101254.63;5023154;28;20073;-80
2021/03/05 01:38:04;;;;;;;44.08;12.68;;;;;;;0.46;95.03;101248.72;5016661;28;20086;-79
2021/03/05 01:40:37;;;;;;;42.33;13.20;;;;;;;0.57;94.92;101242.59;5013232;28;20050;-79
2021/03/05 01:43:07;;;;;;;64.30;14.43;;;;;;;0.43;95.41;101243.56;5014605;28;20065;-78
2021/03/05 01:45:34;;;;;;;50.83;15.15;;;;;;;0.36;95.75;101251.38;5023760;28;20251;-79
2021/03/05 01:48:07;;;;;;;41.72;12.27;;;;;;;0.30;96.10;101254.88;5020271;28;20105;-78
2021/03/05 01:50:47;;;;;;;52.30;13.90;;;;;;;0.20;96.99;101266.16;5026843;28;20114;-78
2021/03/05 01:53:14;;;;;;;48.38;14.60;;;;;;;0.14;97.34;101258.44;5017086;28;20078;-77
2021/03/05 01:55:41;;;;;;;52.42;15.32;;;;;;;-0.08;98.09;101263.72;5022502;28;20164;-80
2021/03/05 01:58:08;;;;;;;50.45;16.33;;;;;;;-0.19;99.03;101268.06;5005058;28;20121;-78
2021/03/05 02:00:37;;;;;;;54.17;16.10;;;;;;;-0.09;98.63;101267.19;5023107;28;20041;-78
2021/03/05 02:03:05;;;;;;;61.38;18.13;;;;;;;-0.13;98.80;101270.66;5018394;28;20047;-81
2021/03/05 02:05:32;;;;;;;59.88;17.42;;;;;;;-0.23;99.18;101268.09;5034090;28;20057;-79
2021/03/05 02:07:59;;;;;;;58.28;15.48;;;;;;;-0.17;98.76;101273.28;5021378;28;20054;-80
2021/03/05 02:10:26;;;;;;;58.53;16.75;;;;;;;-0.20;98.89;101273.28;4997358;28;20554;-80
2021/03/05 02:12:53;;;;;;;62.60;17.45;;;;;;;-0.35;99.56;101276.78;5002582;28;20138;-80
2021/03/05 02:15:20;;;;;;;59.35;17.38;;;;;;;-0.35;99.75;101277.66;5006590;28;20063;-81
2021/03/05 02:18:24;;;;;;;58.80;18.50;;;;;;;-0.35;100.00;101279.38;4986583;28;20133;-78
2021/03/05 02:21:27;;;;;;;48.30;16.27;;;;;;;-0.56;100.00;101280.28;5005901;28;20053;-80
2021/03/05 02:24:20;;;;;;;64.70;17.58;;;;;;;-0.72;100.00;101287.25;5032241;28;20053;-79
2021/03/05 02:27:02;;;;;;;58.45;15.57;;;;;;;-0.80;100.00;101294.16;4979652;28;20569;-81
2021/03/05 02:29:50;;;;;;;65.45;15.98;;;;;;;-0.83;100.00;101297.59;5013042;28;20046;-81
2021/03/05 02:32:25;;;;;;;63.13;16.33;;;;;;;-0.85;100.00;101295.88;5004245;28;20158;-81
2021/03/05 02:34:52;;;;;;;61.65;18.38;;;;;;;-0.97;100.00;101295.88;4997043;28;20308;-80
2021/03/05 02:37:26;;;;;;;69.35;17.85;;;;;;;-1.11;100.00;101307.09;5002144;28;20130;-82
2021/03/05 02:39:58;;;;;;;72.57;16.77;;;;;;;-1.04;100.00;101314.00;5022092;28;20387;-79
2021/03/05 02:42:30;;;;;;;50.28;16.13;;;;;;;-1.02;100.00;101320.00;5005233;28;20124;-82
2021/03/05 02:45:09;;;;;;;71.68;18.20;;;;;;;-1.00;100.00;101319.13;4995750;28;20654;-82
2021/03/05 02:47:37;;;;;;;60.88;15.80;;;;;;;-1.09;100.00;101327.75;4992501;28;20062;-80
2021/03/05 02:50:05;;;;;;;64.43;16.30;;;;;;;-1.14;100.00;101332.06;5016596;28;20488;-82
2021/03/05 02:52:32;;;;;;;67.90;13.93;;;;;;;-0.99;100.00;101341.53;5022183;28;20109;-80
2021/03/05 02:55:03;;;;;;;75.72;18.40;;;;;;;-0.97;100.00;101339.81;5025407;28;20093;-78
2021/03/05 02:57:34;;;;;;;60.47;15.38;;;;;;;-1.13;100.00;101342.38;5006480;28;20034;-78
2021/03/05 03:00:04;;;;;;;60.95;15.70;;;;;;;-1.26;100.00;101343.25;5034041;28;20067;-78
2021/03/05 03:02:32;;;;;;;60.65;14.55;;;;;;;-1.32;100.00;101353.56;5009567;28;20038;-79
2021/03/05 03:05:03;;;;;;;58.22;15.00;;;;;;;-1.39;100.00;101355.28;4999821;28;20049;-79
2021/03/05 03:07:46;;;;;;;62.47;15.10;;;;;;;-1.51;100.00;101359.56;5028097;28;20049;-79
2021/03/05 03:10:14;;;;;;;58.72;15.20;;;;;;;-1.53;100.00;101357.00;5011513;28;20026;-79
2021/03/05 03:12:43;;;;;;;72.78;16.02;;;;;;;-1.55;100.00;101353.53;5013058;28;20052;-80
2021/03/05 03:15:14;;;;;;;55.22;15.55;;;;;;;-1.48;100.00;101363.03;5009451;28;20058;-78
2021/03/05 03:17:44;;;;;;;68.20;14.75;;;;;;;-1.59;100.00;101355.22;5021097;28;20133;-78
2021/03/05 03:20:13;;;;;;;59.17;14.65;;;;;;;-1.62;100.00;101363.00;5020110;28;20060;-80
2021/03/05 03:22:40;;;;;;;66.00;16.48;;;;;;;-1.68;100.00;101373.28;5011322;28;20164;-81
2021/03/05 03:25:07;;;;;;;54.67;14.02;;;;;;;-1.73;100.00;101367.25;5018917;28;20060;-79
2021/03/05 03:27:35;;;;;;;56.80;13.75;;;;;;;-1.71;100.00;101373.28;5020892;28;20037;-79
2021/03/05 03:30:06;;;;;;;71.90;14.90;;;;;;;-1.52;100.00;101375.91;5021376;28;20066;-82
2021/03/05 03:32:35;;;;;;;59.50;13.68;;;;;;;-1.64;100.00;101380.19;5005018;28;20058;-81
2021/03/05 03:35:07;;;;;;;48.92;14.20;;;;;;;-1.82;100.00;101385.28;5032722;28;20057;-80
2021/03/05 03:37:35;;;;;;;49.35;15.80;;;;;;;-1.87;100.00;101386.97;5000048;28;20062;-78
2021/03/05 03:40:16;;;;;;;56.72;15.63;;;;;;;-1.92;100.00;101392.13;5027219;28;20117;-79
2021/03/05 03:42:44;;;;;;;57.30;14.27;;;;;;;-2.00;100.00;101390.34;5024526;28;20125;-80
2021/03/05 03:45:13;;;;;;;67.72;17.48;;;;;;;-2.00;100.00;101403.25;5021205;28;20066;-80
2021/03/05 03:47:40;;;;;;;52.25;14.73;;;;;;;-2.07;100.00;101403.25;5013278;28;20061;-82
2021/03/05 03:50:13;;;;;;;69.57;16.25;;;;;;;-2.11;100.00;101410.94;5017620;28;20080;-80
2021/03/05 03:52:48;;;;;;;72.35;15.90;;;;;;;-2.13;100.00;101410.06;5016852;28;20050;-79
2021/03/05 03:55:14;;;;;;;45.90;15.00;;;;;;;-2.16;100.00;101410.94;5025432;28;21086;-80
2021/03/05 03:57:44;;;;;;;57.00;12.95;;;;;;;-2.23;100.00;101411.72;5029531;28;20128;-80
2021/03/05 04:00:13;;;;;;;57.13;14.25;;;;;;;-2.26;100.00;101414.28;5010668;28;20054;-80
2021/03/05 04:02:42;;;;;;;44.80;13.75;;;;;;;-2.18;100.00;101419.50;5026113;28;20102;-80
2021/03/05 04:05:12;;;;;;;57.33;15.45;;;;;;;-2.23;100.00;101418.59;5031701;28;20088;-80
2021/03/05 04:07:42;;;;;;;60.72;15.40;;;;;;;-2.31;100.00;101426.28;5030129;28;20054;-80
2021/03/05 04:10:10;;;;;;;48.92;13.75;;;;;;;-2.33;100.00;101426.28;5024548;28;20120;-81
2021/03/05 04:12:37;;;;;;;49.67;13.18;;;;;;;-2.32;100.00;101424.56;5022485;28;20058;-81
2021/03/05 04:15:05;;;;;;;54.88;14.18;;;;;;;-2.30;100.00;101426.31;5023293;28;20057;-80
2021/03/05 04:17:32;;;;;;;52.55;15.02;;;;;;;-2.32;100.00;101427.16;5013868;28;20065;-80
2021/03/05 04:19:59;;;;;;;55.30;14.40;;;;;;;-2.33;100.00;101434.03;5014222;28;20480;-82
2021/03/05 04:22:27;;;;;;;59.22;16.95;;;;;;;-2.34;100.00;101432.31;5015105;28;20112;-82
2021/03/05 04:24:53;;;;;;;56.72;15.73;;;;;;;-2.33;100.00;101441.75;5024845;28;20048;-80
2021/03/05 04:27:20;;;;;;;46.78;12.57;;;;;;;-2.45;100.00;101436.50;5023405;28;20061;-80
2021/03/05 04:29:47;;;;;;;61.83;14.80;;;;;;;-2.37;100.00;101444.31;4998521;28;21050;-79
2021/03/05 04:32:14;;;;;;;50.67;14.00;;;;;;;-2.34;100.00;101449.50;5001714;28;20077;-81
2021/03/05 04:34:41;;;;;;;47.70;14.25;;;;;;;-2.39;100.00;101456.31;5009624;28;20129;-80
2021/03/05 04:37:08;;;;;;;45.38;14.52;;;;;;;-2.30;100.00;101456.38;5011218;28;20080;-79
2021/03/05 04:39:35;;;;;;;51.25;13.93;;;;;;;-2.28;100.00;101467.59;5017240;28;20034;-79
2021/03/05 04:42:01;;;;;;;47.65;14.07;;;;;;;-2.33;100.00;101477.00;5022183;28;20114;-79
2021/03/05 04:44:28;;;;;;;45.17;12.75;;;;;;;-2.29;100.00;101473.59;5034566;28;20081;-80
2021/03/05 04:46:55;;;;;;;36.60;11.60;;;;;;;-2.26;100.00;101477.91;5030371;28;20049;-77
2021/03/05 04:49:22;;;;;;;37.58;10.90;;;;;;;-2.28;100.00;101488.22;5007238;28;20044;-81
2021/03/05 04:51:51;;;;;;;38.05;11.52;;;;;;;-2.29;100.00;101483.91;5007341;28;20723;-80
2021/03/05 04:54:17;;;;;;;42.15;12.55;;;;;;;-2.33;100.00;101485.59;5016911;28;20085;-82
2021/03/05 04:56:44;;;;;;;40.53;11.82;;;;;;;-2.37;100.00;101483.84;5015918;28;20459;-80
2021/03/05 04:59:11;;;;;;;38.42;10.25;;;;;;;-2.37;100.00;101494.16;5017115;28;20142;-81
2021/03/05 05:01:38;;;;;;;26.05;9.70;;;;;;;-2.29;100.00;101499.38;5016483;28;20080;-78
2021/03/05 05:04:05;;;;;;;38.63;11.05;;;;;;;-2.24;100.00;101502.88;5022738;28;20069;-79
2021/03/05 05:06:32;;;;;;;32.75;10.50;;;;;;;-2.32;100.00;101495.06;5018083;28;20121;-78
2021/03/05 05:09:12;;;;;;;40.17;12.75;;;;;;;-2.32;100.00;101501.94;5014613;28;20061;-80
2021/03/05 05:11:38;;;;;;;36.30;13.35;;;;;;;-2.35;100.00;101509.63;5016026;28;20054;-80
2021/03/05 05:14:05;;;;;;;32.45;12.10;;;;;;;-2.35;100.00;101514.78;5017985;28;20066;-81
2021/03/05 05:16:32;;;;;;;41.00;14.02;;;;;;;-2.36;100.00;101515.66;5005369;28;20062;-81
2021/03/05 05:18:59;;;;;;;40.72;14.35;;;;;;;-2.41;100.00;101518.19;5008655;28;20053;-80
2021/03/05 05:21:26;;;;;;;38.65;11.85;;;;;;;-2.45;100.00;101525.88;5018723;28;20053;-80
2021/03/05 05:23:52;;;;;;;35.47;13.13;;;;;;;-2.52;100.00;101519.81;5024833;28;20656;-81
2021/03/05 05:26:19;;;;;;;29.25;10.00;;;;;;;-2.52;100.00;101524.09;5034906;28;20077;-82
2021/03/05 05:28:46;;;;;;;19.45;8.30;;;;;;;-2.48;100.00;101518.97;5005126;28;20065;-81
2021/03/05 05:31:13;;;;;;;20.77;10.25;;;;;;;-2.56;100.00;101521.50;5016811;28;20046;-78
2021/03/05 05:33:40;;;;;;;25.30;9.98;;;;;;;-2.34;100.00;101529.44;5013803;28;20636;-80
2021/03/05 05:36:07;;;;;;;23.20;9.70;;;;;;;-2.57;100.00;101524.06;5024946;28;20047;-80
2021/03/05 05:38:34;;;;;;;26.23;10.00;;;;;;;-2.59;100.00;101533.50;5019390;28;20064;-80
2021/03/05 05:41:01;;;;;;;23.55;10.10;;;;;;;-2.54;100.00;101526.66;5017293;28;20455;-80
2021/03/05 05:43:32;;;;;;;30.77;9.85;;;;;;;-2.58;100.00;101540.38;5041257;28;20068;-81
2021/03/05 05:46:02;;;;;;;26.15;9.45;;;;;;;-2.63;100.00;101537.75;5036107;28;20137;-79
2021/03/05 05:48:30;;;;;;;19.90;9.13;;;;;;;-2.66;100.00;101535.13;5027223;28;20057;-79
2021/03/05 05:50:58;;;;;;;26.13;9.57;;;;;;;-2.72;100.00;101536.81;5020520;28;20057;-80
2021/03/05 05:53:30;;;;;;;21.40;11.27;;;;;;;-2.70;100.00;101546.28;5020812;28;20474;-80
2021/03/05 05:55:58;;;;;;;27.33;11.52;;;;;;;-2.68;100.00;101542.00;5015430;28;20062;-81
2021/03/05 05:58:26;;;;;;;24.08;10.27;;;;;;;-2.71;100.00;101546.25;5016495;28;20049;-80
2021/03/05 06:00:56;;;;;;;28.98;11.68;;;;;;;-2.73;100.00;101561.72;5021495;28;20053;-80
2021/03/05 06:03:27;;;;;;;22.38;9.82;;;;;;;-2.75;100.00;101555.66;5022464;28;20080;-79
2021/03/05 06:05:56;;;;;;;26.10;10.88;;;;;;;-2.77;100.00;101556.50;5029092;28;20030;-79
2021/03/05 06:08:23;;;;;;;27.30;10.65;;;;;;;-2.70;100.00;101556.59;5022680;28;20034;-78
2021/03/05 06:10:53;;;;;;;25.85;10.85;;;;;;;-2.68;100.00;101567.78;5032541;28;20060;-80
2021/03/05 06:13:20;;;;;;;23.23;10.43;;;;;;;-2.63;100.00;101566.09;5024243;28;20077;-80
2021/03/05 06:22:20;;;;;;;23.58;10.35;;;;;;;-2.25;100.00;101581.09;5015313;28;20076;-79
2021/03/05 06:24:47;;;;;;;30.15;12.40;;;;;;;-2.25;100.00;101586.25;4989125;28;20046;-81
2021/03/05 06:27:16;;;;;;;21.02;10.05;;;;;;;-2.17;100.00;101587.16;4992222;28;20576;-81
2021/03/05 06:29:48;;;;;;;23.88;9.52;;;;;;;-2.06;100.00;101588.13;5009697;28;20053;-81
2021/03/05 06:32:18;;;;;;;18.38;9.40;;;;;;;-2.04;100.00;101591.56;4997010;28;20049;-85
2021/03/05 06:34:46;;;;;;;21.55;9.80;;;;;;;-1.91;100.00;101597.69;5030345;28;20345;-82
2021/03/05 06:37:14;;;;;;;19.85;8.63;;;;;;;-1.93;100.00;101599.41;5044396;28;20153;-78
2021/03/05 06:39:42;;;;;;;20.33;9.52;;;;;;;-1.24;100.00;101606.75;5007612;28;20083;-79
2021/03/05 06:42:20;;;;;;;17.25;8.25;;;;;;;-0.36;100.00;101613.94;5046350;28;20053;-80
2021/03/05 06:44:54;;;;;;;22.83;7.28;;;;;;;0.48;94.35;101616.56;5027053;28;20048;-80
2021/03/05 06:47:22;;;;;;;14.88;5.35;;;;;;;1.16;88.93;101609.44;4987120;28;20128;-83
2021/03/05 06:49:49;;;;;;;13.95;4.97;;;;;;;2.28;86.62;101604.34;4990738;28;20064;-81
2021/03/05 06:52:20;;;;;;;11.18;4.93;;;;;;;3.37;85.17;101609.19;5012545;28;20068;-78
2021/03/05 06:54:47;;;;;;;13.55;5.25;;;;;;;4.27;78.88;101620.84;4993863;28;20543;-80
2021/03/05 06:57:14;;;;;;;9.85;3.42;;;;;;;5.12;73.95;101608.84;4997624;28;20061;-78
2021/03/05 06:59:45;;;;;;;6.93;4.28;;;;;;;4.99;69.91;101614.31;5008301;28;20331;-77
2021/03/05 07:02:15;;;;;;;7.30;3.55;;;;;;;2.83;75.99;101626.34;5012194;28;20076;-79
2021/03/05 07:04:42;;;;;;;9.05;3.40;;;;;;;3.28;76.34;101627.53;4991372;28;20591;-79
2021/03/05 07:07:11;;;;;;;10.82;4.32;;;;;;;3.82;72.60;101632.84;5036679;28;20053;-80
2021/03/05 07:09:46;;;;;;;11.00;3.58;;;;;;;3.13;75.71;101635.53;5025116;28;20050;-79
2021/03/05 07:12:15;;;;;;;7.13;3.65;;;;;;;4.35;72.09;101638.97;5004792;28;20041;-79
2021/03/05 07:14:44;;;;;;;6.93;3.47;;;;;;;3.89;72.10;101650.13;5005934;28;20137;-79
2021/03/05 07:17:11;;;;;;;6.97;3.60;;;;;;;3.71;73.66;101642.59;4999438;28;20083;-78
2021/03/05 07:19:38;;;;;;;8.80;3.53;;;;;;;3.92;71.37;101654.44;5005451;28;20045;-79
2021/03/05 07:22:07;;;;;;;6.25;3.55;;;;;;;3.35;74.09;101663.03;5003169;28;20119;-79
2021/03/05 07:24:38;;;;;;;17.15;4.13;;;;;;;5.50;67.70;101660.28;4979463;28;20496;-79
2021/03/05 07:27:06;;;;;;;12.15;4.22;;;;;;;7.39;59.98;101656.41;5006650;28;20530;-81
2021/03/05 07:29:37;;;;;;;8.60;3.53;;;;;;;8.89;55.32;101652.44;5026175;28;20084;-77
2021/03/05 07:32:08;;;;;;;7.05;2.92;;;;;;;9.55;52.99;101656.13;5000089;28;20068;-81
2021/03/05 07:34:46;;;;;;;8.68;3.25;;;;;;;9.02;53.67;101650.25;5025465;28;20061;-82
2021/03/05 07:37:14;;;;;;;11.23;3.55;;;;;;;7.07;58.81;101652.94;5024137;28;20056;-81
2021/03/05 07:39:47;;;;;;;14.13;3.55;;;;;;;7.50;57.97;101660.41;5006081;28;20041;-83
2021/03/05 07:42:14;;;;;;;9.75;3.28;;;;;;;9.60;52.12;101648.91;5006905;28;20058;-82
2021/03/05 07:44:41;;;;;;;9.90;3.25;;;;;;;10.86;48.70;101657.81;5020387;28;20053;-84
2021/03/05 07:47:14;;;;;;;6.70;2.72;;;;;;;12.24;45.00;101664.59;5031265;28;20038;-82
2021/03/05 07:49:45;;;;;;;8.20;3.03;;;;;;;12.98;42.64;101656.44;5052648;28;20111;-81
2021/03/05 07:52:12;;;;;;;11.55;3.92;;;;;;;10.75;47.77;101657.41;5002628;28;20152;-82
2021/03/05 07:54:43;;;;;;;7.22;3.10;;;;;;;12.61;42.76;101665.44;5017457;28;20049;-80
2021/03/05 07:57:19;;;;;;;14.25;3.47;;;;;;;12.33;43.38;101672.06;5016613;28;20107;-81
2021/03/05 07:59:48;;;;;;;23.90;3.92;;;;;;;12.68;42.30;101667.66;5017714;28;20113;-80
2021/03/05 08:02:14;;;;;;;11.30;3.55;;;;;;;12.84;41.71;101657.16;5019271;28;20042;-82
2021/03/05 08:07:21;;;;;;;4.85;2.58;;;;;;;9.41;48.66;101676.81;5038328;28;20049;-81
2021/03/05 08:09:48;;;;;;;10.00;3.03;;;;;;;11.69;44.38;101666.38;5036201;28;20073;-81
2021/03/05 08:15:11;;;;;;;7.30;3.47;;;;;;;15.35;35.90;101666.69;5030360;28;20088;-79
2021/03/05 08:17:45;;;;;;;7.63;3.10;;;;;;;13.68;38.88;101665.88;5037578;28;20073;-81
2021/03/05 08:20:18;;;;;;;5.45;2.75;;;;;;;12.75;41.08;101676.16;5015391;28;20049;-79
2021/03/05 08:23:01;;;;;;;6.05;2.67;;;;;;;12.03;41.47;101673.59;5029038;28;20067;-80
2021/03/05 08:25:49;;;;;;;4.70;2.95;;;;;;;11.08;44.13;101678.81;5011103;28;20041;-80
2021/03/05 08:28:38;;;;;;;8.73;3.35;;;;;;;12.67;40.82;101688.88;5013095;28;20046;-79
2021/03/05 08:31:33;;;;;;;9.30;3.35;;;;;;;11.52;43.52;101689.09;5020329;28;20045;-79
2021/03/05 08:34:28;;;;;;;12.85;3.60;;;;;;;11.20;43.75;101689.72;5023909;28;20094;-81
2021/03/05 08:36:56;;;;;;;5.60;3.03;;;;;;;10.44;45.32;101697.34;5024038;28;20018;-81
2021/03/05 08:39:24;;;;;;;8.20;3.17;;;;;;;13.04;41.54;101687.00;5044587;28;20090;-82
2021/03/05 08:42:35;;;;;;;11.68;2.90;;;;;;;12.06;42.16;101689.25;5037181;28;20033;-81
2021/03/05 08:45:12;;;;;;;8.35;3.33;;;;;;;11.81;42.69;101697.47;5020044;28;20052;-80
2021/03/05 08:47:41;;;;;;;12.98;3.50;;;;;;;11.24;44.37;101699.19;5025356;28;20036;-78
2021/03/05 08:50:11;;;;;;;14.73;3.45;;;;;;;9.97;47.03;101707.97;5002298;28;20057;-80
2021/03/05 08:52:46;;;;;;;15.85;3.67;;;;;;;10.84;45.04;101707.06;5017701;28;20076;-82
2021/03/05 08:55:14;;;;;;;15.63;3.45;;;;;;;9.26;48.60;101716.78;5040663;28;20091;-83
2021/03/05 08:57:47;;;;;;;7.50;3.55;;;;;;;9.03;48.89;101723.72;5025418;28;20255;-82
2021/03/05 09:00:18;;;;;;;23.38;3.65;;;;;;;8.67;51.21;101725.81;5002280;28;20084;-84
2021/03/05 09:02:49;;;;;;;11.05;3.22;;;;;;;11.37;44.66;101721.44;5024644;28;20037;-82
2021/03/05 09:05:25;;;;;;;11.00;3.92;;;;;;;13.08;40.73;101728.19;5008819;28;20064;-82
2021/03/05 09:07:55;;;;;;;9.02;4.35;;;;;;;11.91;41.96;101712.81;5031414;28;20128;-81
2021/03/05 09:10:37;;;;;;;11.18;4.07;;;;;;;12.89;40.84;101729.13;4992451;28;20053;-82
2021/03/05 09:13:04;;;;;;;10.43;4.50;;;;;;;10.90;43.69;101724.41;5017651;28;20112;-82
2021/03/05 09:15:58;;;;;;;9.07;4.07;;;;;;;9.49;47.09;101722.06;5003953;28;20053;-81
2021/03/05 09:18:27;;;;;;;7.90;4.18;;;;;;;9.39;47.49;101725.94;5013043;28;20080;-83
2021/03/05 09:21:01;;;;;;;10.07;4.93;;;;;;;9.95;46.36;101741.38;5008689;28;20033;-82
2021/03/05 09:23:33;;;;;;;14.95;4.40;;;;;;;9.06;49.16;101744.63;5000604;28;20049;-80
2021/03/05 09:26:02;;;;;;;12.43;4.93;;;;;;;7.97;52.99;101749.91;5034531;28;20053;-82
2021/03/05 09:28:49;;;;;;;7.40;4.35;;;;;;;11.52;43.63;101754.19;5015193;28;20033;-82
2021/03/05 09:31:24;;;;;;;7.60;4.80;;;;;;;12.60;41.37;101757.00;5007111;28;20147;-79
2021/03/05 09:33:51;;;;;;;12.77;5.43;;;;;;;10.41;45.06;101765.06;5013031;28;20072;-81
2021/03/05 09:36:21;;;;;;;7.07;4.45;;;;;;;8.39;49.75;101764.38;5044170;28;20664;-82
2021/03/05 09:38:55;;;;;;;13.05;4.68;;;;;;;9.87;46.61;101765.34;4988033;28;20124;-82
2021/03/05 09:41:28;;;;;;;10.60;4.55;;;;;;;8.15;51.62;101776.44;5003727;28;20288;-81
2021/03/05 09:44:03;;;;;;;10.43;4.47;;;;;;;7.43;53.14;101774.16;5007844;28;20045;-82
2021/03/05 09:46:32;;;;;;;6.18;3.03;;;;;;;5.37;57.22;101782.41;5025485;28;20049;-83
2021/03/05 09:49:19;;;;;;;11.90;3.00;;;;;;;4.61;57.85;101796.75;5006988;28;20045;-81
2021/03/05 09:51:46;;;;;;;7.55;3.22;;;;;;;3.79;62.47;101797.88;5008484;28;20041;-81
2021/03/05 09:54:13;;;;;;;9.38;3.65;;;;;;;3.24;64.74;101801.09;5000068;28;20160;-81
2021/03/05 09:56:43;;;;;;;8.55;4.88;;;;;;;3.37;65.72;101808.75;5037263;28;20064;-81
2021/03/05 09:59:10;;;;;;;5.78;3.35;;;;;;;3.50;64.76;101810.34;5015563;28;20092;-82
2021/03/05 10:01:39;;;;;;;6.50;3.10;;;;;;;3.27;65.15;101810.59;4997105;28;20076;-80
2021/03/05 10:04:06;;;;;;;7.43;3.53;;;;;;;2.96;65.96;101821.25;4995646;28;20057;-80
2021/03/05 10:06:33;;;;;;;11.25;3.70;;;;;;;2.79;67.13;101804.94;5007079;28;20052;-81
2021/03/05 10:09:03;;;;;;;9.20;3.28;;;;;;;3.34;65.70;101809.66;5023719;28;20074;-80
2021/03/05 10:11:50;;;;;;;17.40;4.10;;;;;;;3.22;65.14;101815.84;5010868;28;20061;-80
2021/03/05 10:14:24;;;;;;;7.47;2.63;;;;;;;2.96;64.26;101812.59;5025330;28;20361;-81
2021/03/05 10:16:52;;;;;;;5.32;2.42;;;;;;;2.96;61.59;101821.25;4983273;28;20065;-80
2021/03/05 10:19:23;;;;;;;6.03;3.03;;;;;;;2.92;62.89;101819.56;4998602;28;20061;-79
2021/03/05 10:21:53;;;;;;;6.78;2.78;;;;;;;2.99;62.57;101813.44;4990570;28;20572;-81
2021/03/05 10:24:25;;;;;;;2.70;1.60;;;;;;;3.03;59.47;101817.75;4985500;28;20060;-78
2021/03/05 10:27:16;;;;;;;12.40;3.22;;;;;;;3.17;60.61;101837.59;5017406;28;20045;-79
2021/03/05 10:29:48;;;;;;;5.13;1.95;;;;;;;2.97;56.75;101833.41;4982106;28;20077;-81
2021/03/05 10:32:25;;;;;;;4.60;1.35;;;;;;;2.79;57.01;101837.03;5002008;28;20077;-80
2021/03/05 10:34:57;;;;;;;2.25;1.33;;;;;;;2.84;57.83;101831.78;5018414;28;20052;-79
2021/03/05 10:37:25;;;;;;;3.95;1.70;;;;;;;3.10;56.55;101844.56;5035471;28;20117;-79
2021/03/05 10:39:52;;;;;;;3.30;1.30;;;;;;;2.92;56.23;101842.97;4990588;28;20639;-80
2021/03/05 10:42:21;;;;;;;1.58;1.33;;;;;;;2.72;55.72;101837.94;4997846;28;20085;-81
2021/03/05 10:44:48;;;;;;;4.32;1.60;;;;;;;2.73;57.31;101849.19;5016875;28;20041;-80
2021/03/05 10:47:18;;;;;;;8.30;2.03;;;;;;;2.97;56.10;101841.22;5027944;28;20056;-78
2021/03/05 10:49:45;;;;;;;5.38;1.80;;;;;;;3.16;55.28;101847.13;5030780;28;20049;-81
2021/03/05 10:52:14;;;;;;;4.43;1.65;;;;;;;3.10;54.21;101852.38;5027293;28;20037;-79
2021/03/05 10:54:45;;;;;;;7.95;2.20;;;;;;;3.09;55.85;101837.63;5017878;28;20068;-80
2021/03/05 10:57:13;;;;;;;8.65;1.63;;;;;;;3.12;54.89;101845.44;5036849;28;20053;-79
2021/03/05 10:59:40;;;;;;;5.18;1.50;;;;;;;2.93;54.51;101854.25;5039253;28;20092;-81
2021/03/05 11:02:08;;;;;;;5.53;1.70;;;;;;;3.19;53.79;101847.09;5052417;28;20053;-80
2021/03/05 11:04:39;;;;;;;6.70;1.63;;;;;;;3.13;52.97;101851.50;5016532;28;20341;-82
2021/03/05 11:07:06;;;;;;;4.63;1.70;;;;;;;2.77;53.55;101858.69;4987784;28;20071;-82
2021/03/05 11:09:33;;;;;;;3.65;1.70;;;;;;;3.13;52.62;101860.16;5026137;28;20072;-81
2021/03/05 11:12:00;;;;;;;5.97;1.70;;;;;;;3.09;52.24;101855.00;5005231;28;20099;-83
2021/03/05 11:14:28;;;;;;;7.57;1.88;;;;;;;3.18;50.76;101868.78;4986786;28;20049;-84
2021/03/05 11:16:56;;;;;;;4.60;2.03;;;;;;;3.23;49.86;101863.53;5006601;28;20053;-81
2021/03/05 11:19:25;;;;;;;4.85;1.98;;;;;;;3.29;50.59;101856.56;5014170;28;20028;-80
2021/03/05 11:21:52;;;;;;;4.75;1.52;;;;;;;3.41;51.69;101862.50;5000786;28;20064;-79
2021/03/05 11:24:20;;;;;;;6.22;2.15;;;;;;;3.29;51.54;101853.94;5020823;28;20187;-79
2021/03/05 11:26:48;;;;;;;5.10;1.90;;;;;;;3.73;53.68;101863.03;5006346;28;20050;-79
2021/03/05 11:29:15;;;;;;;8.02;2.13;;;;;;;4.07;51.19;101850.50;5014786;28;20054;-78
2021/03/05 11:31:42;;;;;;;8.45;3.47;;;;;;;4.12;51.19;101849.56;5044001;28;20084;-77
2021/03/05 11:34:09;;;;;;;7.07;2.38;;;;;;;4.07;51.63;101850.50;5027326;28;20056;-81
2021/03/05 11:36:36;;;;;;;7.50;2.22;;;;;;;4.23;51.78;101858.09;5016964;28;20049;-78
2021/03/05 11:39:04;;;;;;;4.47;2.03;;;;;;;3.51;52.12;101854.63;5047151;28;20042;-81
2021/03/05 11:41:31;;;;;;;4.15;1.70;;;;;;;3.57;52.74;101863.25;5014944;28;20057;-81
2021/03/05 11:44:17;;;;;;;5.38;1.85;;;;;;;3.37;51.55;101848.66;5030115;28;20053;-82